sensor_id;sensor_type;location;lat;lon;timestamp;temperature;humidity
25280;DHT22;13225;47.804;12.116;2023-02-12T00:00:35;1.10;99.90
25280;DHT22;13225;47.804;12.116;2023-02-12T00:03:00;1.10;99.90
25280;DHT22;13225;47.804;12.116;2023-02-12T00:05:26;1.00;99.90
25280;DHT22;13225;47.804;12.116;2023-02-12T00:07:52;1.00;99.90
25280;DHT22;13225;47.804;12.116;2023-02-12T00:10:18;1.00;99.90
25280;DHT22;13225;47.804;12.116;2023-02-12T00:12:44;1.00;99.90
25280;DHT22;13225;47.804;12.116;2023-02-12T00:15:09;1.00;99.90
25280;DHT22;13225;47.804;12.116;2023-02-12T00:17:35;1.00;99.90
25280;DHT22;13225;47.804;12.116;2023-02-12T00:20:00;1.00;99.90
25280;DHT22;13225;47.804;12.116;2023-02-12T00:22:26;1.00;99.90
25280;DHT22;13225;47.804;12.116;2023-02-12T00:24:54;1.00;99.90
25280;DHT22;13225;47.804;12.116;2023-02-12T00:27:19;1.00;99.90
25280;DHT22;13225;47.804;12.116;2023-02-12T00:29:45;1.00;99.90
25280;DHT22;13225;47.804;12.116;2023-02-12T00:32:10;1.00;99.90
25280;DHT22;13225;47.804;12.116;2023-02-12T00:34:36;0.90;99.90
25280;DHT22;13225;47.804;12.116;2023-02-12T00:37:01;0.90;99.90
25280;DHT22;13225;47.804;12.116;2023-02-12T00:39:27;0.90;99.90
25280;DHT22;13225;47.804;12.116;2023-02-12T00:41:53;1.00;99.90
25280;DHT22;13225;47.804;12.116;2023-02-12T00:44:18;1.00;99.90
25280;DHT22;13225;47.804;12.116;2023-02-12T00:46:44;1.00;99.90
25280;DHT22;13225;47.804;12.116;2023-02-12T00:49:09;1.10;99.90
25280;DHT22;13225;47.804;12.116;2023-02-12T00:51:35;1.10;99.90
25280;DHT22;13225;47.804;12.116;2023-02-12T00:54:00;1.20;99.90
25280;DHT22;13225;47.804;12.116;2023-02-12T00:56:26;1.20;99.90
25280;DHT22;13225;47.804;12.116;2023-02-12T00:58:52;1.20;99.90
25280;DHT22;13225;47.804;12.116;2023-02-12T01:01:18;1.20;99.90
25280;DHT22;13225;47.804;12.116;2023-02-12T01:03:43;1.20;99.90
25280;DHT22;13225;47.804;12.116;2023-02-12T01:06:09;1.30;99.90
25280;DHT22;13225;47.804;12.116;2023-02-12T01:08:35;1.30;99.90
25280;DHT22;13225;47.804;12.116;2023-02-12T01:11:03;1.30;99.90
25280;DHT22;13225;47.804;12.116;2023-02-12T01:13:29;1.40;99.90
25280;DHT22;13225;47.804;12.116;2023-02-12T01:16:21;1.40;99.90
25280;DHT22;13225;47.804;12.116;2023-02-12T01:18:47;1.50;99.90
25280;DHT22;13225;47.804;12.116;2023-02-12T01:21:22;1.60;99.90
25280;DHT22;13225;47.804;12.116;2023-02-12T01:23:48;1.60;99.90
25280;DHT22;13225;47.804;12.116;2023-02-12T01:26:16;1.60;99.90
25280;DHT22;13225;47.804;12.116;2023-02-12T01:28:44;1.60;99.90
25280;DHT22;13225;47.804;12.116;2023-02-12T01:31:16;1.70;99.90
25280;DHT22;13225;47.804;12.116;2023-02-12T01:33:42;1.70;99.90
25280;DHT22;13225;47.804;12.116;2023-02-12T01:36:08;1.80;99.90
25280;DHT22;13225;47.804;12.116;2023-02-12T01:38:34;1.80;99.90
25280;DHT22;13225;47.804;12.116;2023-02-12T01:41:05;1.80;99.90
25280;DHT22;13225;47.804;12.116;2023-02-12T01:43:33;1.70;99.90
25280;DHT22;13225;47.804;12.116;2023-02-12T01:46:00;1.80;99.90
25280;DHT22;13225;47.804;12.116;2023-02-12T01:48:28;1.70;99.90
25280;DHT22;13225;47.804;12.116;2023-02-12T01:50:55;1.80;99.90
25280;DHT22;13225;47.804;12.116;2023-02-12T01:53:24;1.70;99.90
25280;DHT22;13225;47.804;12.116;2023-02-12T01:55:57;1.70;99.90
25280;DHT22;13225;47.804;12.116;2023-02-12T01:58:25;1.70;99.90
25280;DHT22;13225;47.804;12.116;2023-02-12T02:00:52;1.80;99.90
25280;DHT22;13225;47.804;12.116;2023-02-12T02:03:17;1.80;99.90
25280;DHT22;13225;47.804;12.116;2023-02-12T02:08:15;1.80;99.90
25280;DHT22;13225;47.804;12.116;2023-02-12T02:10:41;1.80;99.90
25280;DHT22;13225;47.804;12.116;2023-02-12T02:13:07;1.80;99.90
25280;DHT22;13225;47.804;12.116;2023-02-12T02:15:54;1.80;99.90
25280;DHT22;13225;47.804;12.116;2023-02-12T02:18:32;1.80;99.90
25280;DHT22;13225;47.804;12.116;2023-02-12T02:21:18;1.80;99.90
25280;DHT22;13225;47.804;12.116;2023-02-12T02:24:15;1.80;99.90
25280;DHT22;13225;47.804;12.116;2023-02-12T02:29:48;1.80;99.90
25280;DHT22;13225;47.804;12.116;2023-02-12T02:37:27;1.80;99.90
25280;DHT22;13225;47.804;12.116;2023-02-12T02:40:12;1.80;99.90
25280;DHT22;13225;47.804;12.116;2023-02-12T02:42:48;1.80;99.90
25280;DHT22;13225;47.804;12.116;2023-02-12T02:47:59;1.80;99.90
25280;DHT22;13225;47.804;12.116;2023-02-12T02:50:28;1.80;99.90
25280;DHT22;13225;47.804;12.116;2023-02-12T02:53:09;1.80;99.90
25280;DHT22;13225;47.804;12.116;2023-02-12T02:55:39;1.80;99.90
25280;DHT22;13225;47.804;12.116;2023-02-12T02:58:31;1.80;99.90
25280;DHT22;13225;47.804;12.116;2023-02-12T03:01:05;1.80;99.90
25280;DHT22;13225;47.804;12.116;2023-02-12T03:03:44;1.80;99.90
25280;DHT22;13225;47.804;12.116;2023-02-12T03:06:26;1.80;99.90
25280;DHT22;13225;47.804;12.116;2023-02-12T03:08:57;1.80;99.90
25280;DHT22;13225;47.804;12.116;2023-02-12T03:11:28;1.80;99.90
25280;DHT22;13225;47.804;12.116;2023-02-12T03:14:07;1.80;99.90
25280;DHT22;13225;47.804;12.116;2023-02-12T03:16:38;1.80;99.90
25280;DHT22;13225;47.804;12.116;2023-02-12T03:19:09;1.80;99.90
25280;DHT22;13225;47.804;12.116;2023-02-12T03:21:47;1.70;99.90
25280;DHT22;13225;47.804;12.116;2023-02-12T03:27:08;1.80;99.90
25280;DHT22;13225;47.804;12.116;2023-02-12T03:29:35;1.80;99.90
25280;DHT22;13225;47.804;12.116;2023-02-12T03:35:09;1.90;99.90
25280;DHT22;13225;47.804;12.116;2023-02-12T03:40:33;1.90;99.90
25280;DHT22;13225;47.804;12.116;2023-02-12T03:43:03;1.90;99.90
25280;DHT22;13225;47.804;12.116;2023-02-12T03:45:57;1.90;99.90
25280;DHT22;13225;47.804;12.116;2023-02-12T03:51:04;1.90;99.90
25280;DHT22;13225;47.804;12.116;2023-02-12T03:53:34;2.00;99.90
25280;DHT22;13225;47.804;12.116;2023-02-12T03:56:10;2.00;99.90
25280;DHT22;13225;47.804;12.116;2023-02-12T03:58:37;2.00;99.90
25280;DHT22;13225;47.804;12.116;2023-02-12T04:01:05;2.00;99.90
25280;DHT22;13225;47.804;12.116;2023-02-12T04:03:32;2.00;99.90
25280;DHT22;13225;47.804;12.116;2023-02-12T04:05:57;2.00;99.90
25280;DHT22;13225;47.804;12.116;2023-02-12T04:08:24;2.00;99.90
25280;DHT22;13225;47.804;12.116;2023-02-12T04:10:54;2.00;99.90
25280;DHT22;13225;47.804;12.116;2023-02-12T04:13:44;2.10;99.90
25280;DHT22;13225;47.804;12.116;2023-02-12T04:16:26;2.10;99.90
25280;DHT22;13225;47.804;12.116;2023-02-12T04:18:54;2.20;99.90
25280;DHT22;13225;47.804;12.116;2023-02-12T04:24:39;2.10;99.90
25280;DHT22;13225;47.804;12.116;2023-02-12T04:27:15;2.10;99.90
25280;DHT22;13225;47.804;12.116;2023-02-12T04:30:08;2.10;99.90
25280;DHT22;13225;47.804;12.116;2023-02-12T04:35:29;1.90;99.90
25280;DHT22;13225;47.804;12.116;2023-02-12T04:40:24;1.80;99.90
25280;DHT22;13225;47.804;12.116;2023-02-12T04:42:52;1.80;99.90
25280;DHT22;13225;47.804;12.116;2023-02-12T04:45:27;1.80;99.90
25280;DHT22;13225;47.804;12.116;2023-02-12T04:47:52;1.80;99.90
25280;DHT22;13225;47.804;12.116;2023-02-12T04:50:18;1.80;99.90
25280;DHT22;13225;47.804;12.116;2023-02-12T04:52:44;1.80;99.90
25280;DHT22;13225;47.804;12.116;2023-02-12T04:55:10;1.80;99.90
25280;DHT22;13225;47.804;12.116;2023-02-12T04:57:35;1.80;99.90
25280;DHT22;13225;47.804;12.116;2023-02-12T05:00:03;1.80;99.90
25280;DHT22;13225;47.804;12.116;2023-02-12T05:02:30;1.70;99.90
25280;DHT22;13225;47.804;12.116;2023-02-12T05:04:57;1.70;99.90
25280;DHT22;13225;47.804;12.116;2023-02-12T05:07:22;1.70;99.90
25280;DHT22;13225;47.804;12.116;2023-02-12T05:09:48;1.70;99.90
25280;DHT22;13225;47.804;12.116;2023-02-12T05:12:14;1.80;99.90
25280;DHT22;13225;47.804;12.116;2023-02-12T05:14:39;1.80;99.90
25280;DHT22;13225;47.804;12.116;2023-02-12T05:17:05;1.90;99.90
25280;DHT22;13225;47.804;12.116;2023-02-12T05:19:30;1.90;99.90
25280;DHT22;13225;47.804;12.116;2023-02-12T05:21:56;1.90;99.90
25280;DHT22;13225;47.804;12.116;2023-02-12T05:24:21;2.00;99.90
25280;DHT22;13225;47.804;12.116;2023-02-12T05:26:48;2.00;99.90
25280;DHT22;13225;47.804;12.116;2023-02-12T05:29:14;2.00;99.90
25280;DHT22;13225;47.804;12.116;2023-02-12T05:31:40;2.10;99.90
25280;DHT22;13225;47.804;12.116;2023-02-12T05:34:07;2.10;99.90
25280;DHT22;13225;47.804;12.116;2023-02-12T05:36:34;2.10;99.90
25280;DHT22;13225;47.804;12.116;2023-02-12T05:38:59;2.20;99.90
25280;DHT22;13225;47.804;12.116;2023-02-12T05:41:25;2.20;99.90
25280;DHT22;13225;47.804;12.116;2023-02-12T05:43:51;2.10;99.90
25280;DHT22;13225;47.804;12.116;2023-02-12T05:46:18;2.10;99.90
25280;DHT22;13225;47.804;12.116;2023-02-12T05:48:46;2.10;99.90
25280;DHT22;13225;47.804;12.116;2023-02-12T05:51:15;2.10;99.90
25280;DHT22;13225;47.804;12.116;2023-02-12T05:53:41;2.10;99.90
25280;DHT22;13225;47.804;12.116;2023-02-12T05:56:21;2.00;99.90
25280;DHT22;13225;47.804;12.116;2023-02-12T05:58:52;2.00;99.90
25280;DHT22;13225;47.804;12.116;2023-02-12T06:01:23;2.00;99.90
25280;DHT22;13225;47.804;12.116;2023-02-12T06:03:49;2.00;99.90
25280;DHT22;13225;47.804;12.116;2023-02-12T06:06:14;2.00;99.90
25280;DHT22;13225;47.804;12.116;2023-02-12T06:08:40;2.00;99.90
25280;DHT22;13225;47.804;12.116;2023-02-12T06:11:10;1.90;99.90
25280;DHT22;13225;47.804;12.116;2023-02-12T06:13:37;2.00;99.90
25280;DHT22;13225;47.804;12.116;2023-02-12T06:16:03;2.00;99.90
25280;DHT22;13225;47.804;12.116;2023-02-12T06:18:29;2.10;99.90
25280;DHT22;13225;47.804;12.116;2023-02-12T06:20:55;2.10;99.90
25280;DHT22;13225;47.804;12.116;2023-02-12T06:23:22;2.20;99.90
25280;DHT22;13225;47.804;12.116;2023-02-12T06:25:49;2.20;99.90
25280;DHT22;13225;47.804;12.116;2023-02-12T06:28:15;2.20;99.90
25280;DHT22;13225;47.804;12.116;2023-02-12T06:30:41;2.20;99.90
25280;DHT22;13225;47.804;12.116;2023-02-12T06:33:06;2.20;99.90
25280;DHT22;13225;47.804;12.116;2023-02-12T06:35:34;2.20;99.90
25280;DHT22;13225;47.804;12.116;2023-02-12T06:38:00;2.20;99.90
25280;DHT22;13225;47.804;12.116;2023-02-12T06:40:26;2.20;99.90
25280;DHT22;13225;47.804;12.116;2023-02-12T06:42:51;2.20;99.90
25280;DHT22;13225;47.804;12.116;2023-02-12T06:45:17;2.30;99.90
25280;DHT22;13225;47.804;12.116;2023-02-12T06:47:42;2.40;99.90
25280;DHT22;13225;47.804;12.116;2023-02-12T06:50:08;2.40;99.90
25280;DHT22;13225;47.804;12.116;2023-02-12T06:52:34;2.40;99.90
25280;DHT22;13225;47.804;12.116;2023-02-12T06:55:00;2.40;99.90
25280;DHT22;13225;47.804;12.116;2023-02-12T06:57:25;2.40;99.90
25280;DHT22;13225;47.804;12.116;2023-02-12T06:59:51;2.40;99.90
25280;DHT22;13225;47.804;12.116;2023-02-12T07:02:16;2.40;99.90
25280;DHT22;13225;47.804;12.116;2023-02-12T07:04:42;2.50;99.90
25280;DHT22;13225;47.804;12.116;2023-02-12T07:07:07;2.50;99.90
25280;DHT22;13225;47.804;12.116;2023-02-12T07:09:33;2.50;99.90
25280;DHT22;13225;47.804;12.116;2023-02-12T07:11:59;2.50;99.90
25280;DHT22;13225;47.804;12.116;2023-02-12T07:14:25;2.60;99.90
25280;DHT22;13225;47.804;12.116;2023-02-12T07:16:53;2.70;99.90
25280;DHT22;13225;47.804;12.116;2023-02-12T07:19:18;2.80;99.90
25280;DHT22;13225;47.804;12.116;2023-02-12T07:21:44;2.90;99.90
25280;DHT22;13225;47.804;12.116;2023-02-12T07:24:11;2.90;99.90
25280;DHT22;13225;47.804;12.116;2023-02-12T07:26:37;3.00;99.90
25280;DHT22;13225;47.804;12.116;2023-02-12T07:29:03;3.00;99.90
25280;DHT22;13225;47.804;12.116;2023-02-12T07:31:29;3.00;99.90
25280;DHT22;13225;47.804;12.116;2023-02-12T07:33:56;3.00;99.90
25280;DHT22;13225;47.804;12.116;2023-02-12T07:36:23;2.90;99.90
25280;DHT22;13225;47.804;12.116;2023-02-12T07:38:49;2.90;99.90
25280;DHT22;13225;47.804;12.116;2023-02-12T07:41:19;2.90;99.90
25280;DHT22;13225;47.804;12.116;2023-02-12T07:43:46;3.00;99.90
25280;DHT22;13225;47.804;12.116;2023-02-12T07:46:17;3.10;99.90
25280;DHT22;13225;47.804;12.116;2023-02-12T07:48:44;3.20;99.90
25280;DHT22;13225;47.804;12.116;2023-02-12T07:51:13;3.30;99.90
25280;DHT22;13225;47.804;12.116;2023-02-12T07:53:39;3.40;99.90
25280;DHT22;13225;47.804;12.116;2023-02-12T07:58:39;3.70;99.90
25280;DHT22;13225;47.804;12.116;2023-02-12T08:03:42;4.00;99.90
25280;DHT22;13225;47.804;12.116;2023-02-12T08:06:16;4.00;99.90
25280;DHT22;13225;47.804;12.116;2023-02-12T08:08:43;4.10;99.90
25280;DHT22;13225;47.804;12.116;2023-02-12T08:11:11;4.30;99.90
25280;DHT22;13225;47.804;12.116;2023-02-12T08:13:37;4.40;99.90
25280;DHT22;13225;47.804;12.116;2023-02-12T08:16:06;4.50;99.90
25280;DHT22;13225;47.804;12.116;2023-02-12T08:18:32;4.60;99.90
25280;DHT22;13225;47.804;12.116;2023-02-12T08:21:09;4.50;99.90
25280;DHT22;13225;47.804;12.116;2023-02-12T08:23:35;4.50;99.90
25280;DHT22;13225;47.804;12.116;2023-02-12T08:26:17;4.40;99.90
25280;DHT22;13225;47.804;12.116;2023-02-12T08:28:46;4.50;99.90
25280;DHT22;13225;47.804;12.116;2023-02-12T08:31:17;4.50;99.90
25280;DHT22;13225;47.804;12.116;2023-02-12T08:33:48;4.60;99.90
25280;DHT22;13225;47.804;12.116;2023-02-12T08:36:17;4.60;99.90
25280;DHT22;13225;47.804;12.116;2023-02-12T08:38:43;4.70;99.90
25280;DHT22;13225;47.804;12.116;2023-02-12T08:41:21;4.80;99.90
25280;DHT22;13225;47.804;12.116;2023-02-12T08:43:48;4.80;99.90
25280;DHT22;13225;47.804;12.116;2023-02-12T08:46:16;4.90;99.90
25280;DHT22;13225;47.804;12.116;2023-02-12T08:48:43;4.90;99.90
25280;DHT22;13225;47.804;12.116;2023-02-12T08:51:14;4.90;99.90
25280;DHT22;13225;47.804;12.116;2023-02-12T08:53:41;4.80;99.90
25280;DHT22;13225;47.804;12.116;2023-02-12T08:56:09;4.90;99.90
25280;DHT22;13225;47.804;12.116;2023-02-12T08:58:35;4.90;99.90
25280;DHT22;13225;47.804;12.116;2023-02-12T09:01:02;4.80;99.90
25280;DHT22;13225;47.804;12.116;2023-02-12T09:03:27;4.80;99.90
25280;DHT22;13225;47.804;12.116;2023-02-12T09:05:53;4.80;99.90
25280;DHT22;13225;47.804;12.116;2023-02-12T09:08:19;4.80;99.90
25280;DHT22;13225;47.804;12.116;2023-02-12T09:10:45;4.80;99.90
25280;DHT22;13225;47.804;12.116;2023-02-12T09:13:11;4.70;99.90
25280;DHT22;13225;47.804;12.116;2023-02-12T09:15:38;4.80;99.90
25280;DHT22;13225;47.804;12.116;2023-02-12T09:18:04;4.80;99.90
25280;DHT22;13225;47.804;12.116;2023-02-12T09:20:30;4.80;99.90
25280;DHT22;13225;47.804;12.116;2023-02-12T09:22:59;4.80;99.90
25280;DHT22;13225;47.804;12.116;2023-02-12T09:25:25;4.80;99.90
25280;DHT22;13225;47.804;12.116;2023-02-12T09:27:53;4.80;99.90
25280;DHT22;13225;47.804;12.116;2023-02-12T09:30:19;4.90;99.90
25280;DHT22;13225;47.804;12.116;2023-02-12T09:32:45;5.00;99.90
25280;DHT22;13225;47.804;12.116;2023-02-12T09:35:10;5.20;99.90
25280;DHT22;13225;47.804;12.116;2023-02-12T09:37:37;5.30;99.90
25280;DHT22;13225;47.804;12.116;2023-02-12T09:40:05;5.40;99.90
25280;DHT22;13225;47.804;12.116;2023-02-12T09:42:51;5.70;99.90
25280;DHT22;13225;47.804;12.116;2023-02-12T09:45:25;5.90;99.90
25280;DHT22;13225;47.804;12.116;2023-02-12T09:50:50;6.10;99.90
25280;DHT22;13225;47.804;12.116;2023-02-12T09:53:19;6.00;99.90
25280;DHT22;13225;47.804;12.116;2023-02-12T09:55:46;6.10;99.90
25280;DHT22;13225;47.804;12.116;2023-02-12T09:58:19;6.00;99.90
25280;DHT22;13225;47.804;12.116;2023-02-12T10:00:46;5.90;99.90
25280;DHT22;13225;47.804;12.116;2023-02-12T10:03:14;5.90;99.90
25280;DHT22;13225;47.804;12.116;2023-02-12T10:06:04;6.10;99.90
25280;DHT22;13225;47.804;12.116;2023-02-12T10:14:30;6.40;99.90
25280;DHT22;13225;47.804;12.116;2023-02-12T10:25:50;6.60;99.90
25280;DHT22;13225;47.804;12.116;2023-02-12T10:28:31;6.80;99.90
25280;DHT22;13225;47.804;12.116;2023-02-12T10:33:45;7.20;99.90
25280;DHT22;13225;47.804;12.116;2023-02-12T10:39:06;7.20;99.90
25280;DHT22;13225;47.804;12.116;2023-02-12T10:44:18;7.30;99.90
25280;DHT22;13225;47.804;12.116;2023-02-12T10:46:43;7.30;99.90
25280;DHT22;13225;47.804;12.116;2023-02-12T10:49:12;7.40;99.90
25280;DHT22;13225;47.804;12.116;2023-02-12T10:51:55;7.50;99.90
25280;DHT22;13225;47.804;12.116;2023-02-12T10:54:39;7.60;99.90
25280;DHT22;13225;47.804;12.116;2023-02-12T10:57:28;7.60;99.90
25280;DHT22;13225;47.804;12.116;2023-02-12T11:02:38;7.70;99.90
25280;DHT22;13225;47.804;12.116;2023-02-12T11:05:22;7.80;99.90
25280;DHT22;13225;47.804;12.116;2023-02-12T11:07:50;7.90;99.90
25280;DHT22;13225;47.804;12.116;2023-02-12T11:10:20;8.00;99.90
25280;DHT22;13225;47.804;12.116;2023-02-12T11:12:46;8.10;99.90
25280;DHT22;13225;47.804;12.116;2023-02-12T11:15:16;8.40;99.90
25280;DHT22;13225;47.804;12.116;2023-02-12T11:17:53;8.40;99.90
25280;DHT22;13225;47.804;12.116;2023-02-12T11:20:56;8.50;99.90
25280;DHT22;13225;47.804;12.116;2023-02-12T11:23:32;8.50;99.90
25280;DHT22;13225;47.804;12.116;2023-02-12T11:26:03;8.60;99.90
25280;DHT22;13225;47.804;12.116;2023-02-12T11:28:31;8.80;99.90
25280;DHT22;13225;47.804;12.116;2023-02-12T11:31:58;8.90;99.90
25280;DHT22;13225;47.804;12.116;2023-02-12T11:34:11;9.00;99.90
25280;DHT22;13225;47.804;12.116;2023-02-12T11:36:41;9.40;99.90
25280;DHT22;13225;47.804;12.116;2023-02-12T11:41:51;9.50;99.90
25280;DHT22;13225;47.804;12.116;2023-02-12T11:44:24;9.60;99.90
25280;DHT22;13225;47.804;12.116;2023-02-12T11:47:00;9.90;99.90
25280;DHT22;13225;47.804;12.116;2023-02-12T11:49:31;10.00;99.90
25280;DHT22;13225;47.804;12.116;2023-02-12T11:51:59;10.20;99.90
25280;DHT22;13225;47.804;12.116;2023-02-12T11:54:28;10.20;99.90
25280;DHT22;13225;47.804;12.116;2023-02-12T11:56:55;10.40;99.90
25280;DHT22;13225;47.804;12.116;2023-02-12T12:01:50;10.60;99.90
25280;DHT22;13225;47.804;12.116;2023-02-12T12:04:19;10.60;99.90
25280;DHT22;13225;47.804;12.116;2023-02-12T12:07:04;10.50;99.90
25280;DHT22;13225;47.804;12.116;2023-02-12T12:17:12;10.60;99.90
25280;DHT22;13225;47.804;12.116;2023-02-12T12:20:04;10.70;99.90
25280;DHT22;13225;47.804;12.116;2023-02-12T12:23:04;10.70;99.90
25280;DHT22;13225;47.804;12.116;2023-02-12T12:25:49;10.80;99.90
25280;DHT22;13225;47.804;12.116;2023-02-12T12:28:47;10.90;99.90
25280;DHT22;13225;47.804;12.116;2023-02-12T12:31:30;10.80;99.90
25280;DHT22;13225;47.804;12.116;2023-02-12T12:39:23;11.10;99.90
25280;DHT22;13225;47.804;12.116;2023-02-12T12:48:22;11.20;99.90
25280;DHT22;13225;47.804;12.116;2023-02-12T12:53:49;10.90;99.90
25280;DHT22;13225;47.804;12.116;2023-02-12T13:12:44;10.60;99.90
25280;DHT22;13225;47.804;12.116;2023-02-12T13:15:38;10.60;99.90
25280;DHT22;13225;47.804;12.116;2023-02-12T13:26:44;11.40;99.90
25280;DHT22;13225;47.804;12.116;2023-02-12T13:29:20;11.90;99.90
25280;DHT22;13225;47.804;12.116;2023-02-12T13:31:54;12.40;99.90
25280;DHT22;13225;47.804;12.116;2023-02-12T13:34:20;12.70;99.90
25280;DHT22;13225;47.804;12.116;2023-02-12T13:36:48;12.80;99.90
25280;DHT22;13225;47.804;12.116;2023-02-12T13:39:36;13.30;99.90
25280;DHT22;13225;47.804;12.116;2023-02-12T13:49:58;12.70;99.90
25280;DHT22;13225;47.804;12.116;2023-02-12T13:57:43;12.60;99.90
25280;DHT22;13225;47.804;12.116;2023-02-12T14:01:01;12.30;99.90
25280;DHT22;13225;47.804;12.116;2023-02-12T14:03:24;12.20;99.90
25280;DHT22;13225;47.804;12.116;2023-02-12T14:08:44;11.80;99.90
25280;DHT22;13225;47.804;12.116;2023-02-12T14:11:18;11.80;99.90
25280;DHT22;13225;47.804;12.116;2023-02-12T14:16:36;12.20;99.90
25280;DHT22;13225;47.804;12.116;2023-02-12T14:24:56;13.40;99.90
25280;DHT22;13225;47.804;12.116;2023-02-12T14:37:59;13.20;99.90
25280;DHT22;13225;47.804;12.116;2023-02-12T14:48:54;12.80;99.90
25280;DHT22;13225;47.804;12.116;2023-02-12T14:51:42;12.60;99.90
25280;DHT22;13225;47.804;12.116;2023-02-12T14:54:59;12.30;99.90
25280;DHT22;13225;47.804;12.116;2023-02-12T14:57:05;12.00;99.90
25280;DHT22;13225;47.804;12.116;2023-02-12T14:59:34;11.70;99.90
25280;DHT22;13225;47.804;12.116;2023-02-12T15:02:01;11.60;99.90
25280;DHT22;13225;47.804;12.116;2023-02-12T15:04:35;11.40;99.90
25280;DHT22;13225;47.804;12.116;2023-02-12T15:07:11;10.90;99.90
25280;DHT22;13225;47.804;12.116;2023-02-12T15:09:43;10.30;99.90
25280;DHT22;13225;47.804;12.116;2023-02-12T15:12:25;9.70;99.90
25280;DHT22;13225;47.804;12.116;2023-02-12T15:15:18;9.40;99.90
25280;DHT22;13225;47.804;12.116;2023-02-12T15:20:39;9.10;99.90
25280;DHT22;13225;47.804;12.116;2023-02-12T15:23:43;8.90;99.90
25280;DHT22;13225;47.804;12.116;2023-02-12T15:26:15;8.80;99.90
25280;DHT22;13225;47.804;12.116;2023-02-12T15:28:41;8.80;99.90
25280;DHT22;13225;47.804;12.116;2023-02-12T15:31:18;8.70;99.90
25280;DHT22;13225;47.804;12.116;2023-02-12T15:33:55;8.70;99.90
25280;DHT22;13225;47.804;12.116;2023-02-12T15:36:26;8.60;99.90
25280;DHT22;13225;47.804;12.116;2023-02-12T15:39:05;8.60;99.90
25280;DHT22;13225;47.804;12.116;2023-02-12T15:44:17;8.40;99.90
25280;DHT22;13225;47.804;12.116;2023-02-12T15:47:10;8.30;99.90
25280;DHT22;13225;47.804;12.116;2023-02-12T15:49:39;8.30;99.90
25280;DHT22;13225;47.804;12.116;2023-02-12T15:52:44;8.20;99.90
25280;DHT22;13225;47.804;12.116;2023-02-12T15:55:22;8.20;99.90
25280;DHT22;13225;47.804;12.116;2023-02-12T15:57:55;8.10;99.90
25280;DHT22;13225;47.804;12.116;2023-02-12T16:00:38;8.00;99.90
25280;DHT22;13225;47.804;12.116;2023-02-12T16:03:16;8.00;99.90
25280;DHT22;13225;47.804;12.116;2023-02-12T16:05:43;7.80;99.90
25280;DHT22;13225;47.804;12.116;2023-02-12T16:08:14;7.80;99.90
25280;DHT22;13225;47.804;12.116;2023-02-12T16:10:45;7.70;99.90
25280;DHT22;13225;47.804;12.116;2023-02-12T16:13:31;7.60;99.90
25280;DHT22;13225;47.804;12.116;2023-02-12T16:16:25;7.50;99.90
25280;DHT22;13225;47.804;12.116;2023-02-12T16:19:20;7.40;99.90
25280;DHT22;13225;47.804;12.116;2023-02-12T16:21:50;7.30;99.90
25280;DHT22;13225;47.804;12.116;2023-02-12T16:24:28;7.20;99.90
25280;DHT22;13225;47.804;12.116;2023-02-12T16:26:56;7.10;99.90
25280;DHT22;13225;47.804;12.116;2023-02-12T16:29:22;7.00;99.90
25280;DHT22;13225;47.804;12.116;2023-02-12T16:31:54;6.90;99.90
25280;DHT22;13225;47.804;12.116;2023-02-12T16:34:33;6.80;99.90
25280;DHT22;13225;47.804;12.116;2023-02-12T16:37:00;6.60;99.90
25280;DHT22;13225;47.804;12.116;2023-02-12T16:42:18;6.40;99.90
25280;DHT22;13225;47.804;12.116;2023-02-12T16:44:49;6.30;99.90
25280;DHT22;13225;47.804;12.116;2023-02-12T16:47:24;6.30;99.90
25280;DHT22;13225;47.804;12.116;2023-02-12T16:49:54;6.20;99.90
25280;DHT22;13225;47.804;12.116;2023-02-12T16:52:37;6.10;99.90
25280;DHT22;13225;47.804;12.116;2023-02-12T16:55:05;6.00;99.90
25280;DHT22;13225;47.804;12.116;2023-02-12T16:57:32;5.90;99.90
25280;DHT22;13225;47.804;12.116;2023-02-12T16:59:58;5.80;99.90
25280;DHT22;13225;47.804;12.116;2023-02-12T17:02:23;5.70;99.90
25280;DHT22;13225;47.804;12.116;2023-02-12T17:04:49;5.60;99.90
25280;DHT22;13225;47.804;12.116;2023-02-12T17:07:19;5.60;99.90
25280;DHT22;13225;47.804;12.116;2023-02-12T17:09:45;5.60;99.90
25280;DHT22;13225;47.804;12.116;2023-02-12T17:12:11;5.50;99.90
25280;DHT22;13225;47.804;12.116;2023-02-12T17:14:36;5.40;99.90
25280;DHT22;13225;47.804;12.116;2023-02-12T17:17:02;5.30;99.90
25280;DHT22;13225;47.804;12.116;2023-02-12T17:19:27;5.20;99.90
25280;DHT22;13225;47.804;12.116;2023-02-12T17:21:53;5.10;99.90
25280;DHT22;13225;47.804;12.116;2023-02-12T17:24:22;5.00;99.90
25280;DHT22;13225;47.804;12.116;2023-02-12T17:26:51;4.90;99.90
25280;DHT22;13225;47.804;12.116;2023-02-12T17:29:18;4.80;99.90
25280;DHT22;13225;47.804;12.116;2023-02-12T17:31:44;4.70;99.90
25280;DHT22;13225;47.804;12.116;2023-02-12T17:34:09;4.70;99.90
25280;DHT22;13225;47.804;12.116;2023-02-12T17:36:36;4.60;99.90
25280;DHT22;13225;47.804;12.116;2023-02-12T17:39:04;4.50;99.90
25280;DHT22;13225;47.804;12.116;2023-02-12T17:41:30;4.30;99.90
25280;DHT22;13225;47.804;12.116;2023-02-12T17:43:56;4.20;99.90
25280;DHT22;13225;47.804;12.116;2023-02-12T17:46:24;4.10;99.90
25280;DHT22;13225;47.804;12.116;2023-02-12T17:48:50;4.10;99.90
25280;DHT22;13225;47.804;12.116;2023-02-12T17:51:15;4.00;99.90
25280;DHT22;13225;47.804;12.116;2023-02-12T17:53:41;4.00;99.90
25280;DHT22;13225;47.804;12.116;2023-02-12T17:56:14;3.80;99.90
25280;DHT22;13225;47.804;12.116;2023-02-12T17:58:40;3.60;99.90
25280;DHT22;13225;47.804;12.116;2023-02-12T18:01:11;3.60;99.90
25280;DHT22;13225;47.804;12.116;2023-02-12T18:03:37;3.60;99.90
25280;DHT22;13225;47.804;12.116;2023-02-12T18:06:03;3.60;99.90
25280;DHT22;13225;47.804;12.116;2023-02-12T18:08:30;3.60;99.90
25280;DHT22;13225;47.804;12.116;2023-02-12T18:10:56;3.70;99.90
25280;DHT22;13225;47.804;12.116;2023-02-12T18:13:22;3.70;99.90
25280;DHT22;13225;47.804;12.116;2023-02-12T18:15:48;3.70;99.90
25280;DHT22;13225;47.804;12.116;2023-02-12T18:18:13;3.60;99.90
25280;DHT22;13225;47.804;12.116;2023-02-12T18:20:41;3.60;99.90
25280;DHT22;13225;47.804;12.116;2023-02-12T18:23:07;3.60;99.90
25280;DHT22;13225;47.804;12.116;2023-02-12T18:25:34;3.60;99.90
25280;DHT22;13225;47.804;12.116;2023-02-12T18:28:00;3.60;99.90
25280;DHT22;13225;47.804;12.116;2023-02-12T18:30:26;3.60;99.90
25280;DHT22;13225;47.804;12.116;2023-02-12T18:32:52;3.50;99.90
25280;DHT22;13225;47.804;12.116;2023-02-12T18:35:17;3.60;99.90
25280;DHT22;13225;47.804;12.116;2023-02-12T18:37:43;3.60;99.90
25280;DHT22;13225;47.804;12.116;2023-02-12T18:40:10;3.50;99.90
25280;DHT22;13225;47.804;12.116;2023-02-12T18:42:35;3.50;99.90